createdAt,value
2018-01-28T00:00:03.801Z,101405
2018-01-28T00:01:03.799Z,101419
2018-01-28T00:02:03.833Z,101421
2018-01-28T00:03:04.546Z,101407
2018-01-28T00:04:03.988Z,101412
2018-01-28T00:05:04.584Z,101411
2018-01-28T00:06:04.207Z,101427
2018-01-28T00:07:04.814Z,101426
2018-01-28T00:08:04.269Z,101428
2018-01-28T00:09:04.805Z,101424
2018-01-28T00:10:04.273Z,101434
2018-01-28T00:11:04.299Z,101430
2018-01-28T00:12:04.355Z,101427
2018-01-28T00:13:05.023Z,101420
2018-01-28T00:14:04.385Z,101423
2018-01-28T00:15:04.510Z,101421
2018-01-28T00:16:04.557Z,101421
2018-01-28T00:17:05.159Z,101420
2018-01-28T00:18:05.100Z,101427
2018-01-28T00:19:04.577Z,101425
2018-01-28T00:20:04.648Z,101421
2018-01-28T00:21:04.777Z,101421
2018-01-28T00:22:05.378Z,101415
2018-01-28T00:23:04.913Z,101411
2018-01-28T00:24:05.480Z,101425
2018-01-28T00:25:04.839Z,101428
2018-01-28T00:26:05.515Z,101423
2018-01-28T00:27:05.120Z,101421
2018-01-28T00:28:04.973Z,101420
2018-01-28T00:29:05.553Z,101422
2018-01-28T00:30:05.108Z,101416
2018-01-28T00:31:05.817Z,101419
2018-01-28T00:32:05.362Z,101412
2018-01-28T00:33:05.958Z,101403
2018-01-28T00:34:06.021Z,101404
2018-01-28T00:35:05.964Z,101408
2018-01-28T00:36:05.501Z,101411
2018-01-28T00:37:06.180Z,101414
2018-01-28T00:38:05.541Z,101410
2018-01-28T00:39:05.612Z,101410
2018-01-28T00:40:05.733Z,101415
2018-01-28T00:41:06.341Z,101410
2018-01-28T00:42:06.343Z,101414
2018-01-28T00:43:05.825Z,101414
2018-01-28T00:44:05.895Z,101412
2018-01-28T00:45:06.498Z,101409
2018-01-28T00:46:06.525Z,101403
2018-01-28T00:47:06.560Z,101413
2018-01-28T00:48:06.079Z,101412
2018-01-28T00:49:05.986Z,101418
2018-01-28T00:50:06.135Z,101413
2018-01-28T00:51:06.123Z,101411
2018-01-28T00:52:06.786Z,101411
2018-01-28T00:53:06.720Z,101404
2018-01-28T00:54:06.188Z,101401
2018-01-28T00:55:06.200Z,101393
2018-01-28T00:56:06.824Z,101381
2018-01-28T00:57:06.360Z,101393
2018-01-28T00:58:06.379Z,101376
2018-01-28T00:59:06.536Z,101382
2018-01-28T01:00:06.539Z,101373
2018-01-28T01:01:06.997Z,101371
2018-01-28T01:02:07.207Z,101379
2018-01-28T01:03:06.712Z,101377
2018-01-28T01:04:06.822Z,101384
2018-01-28T01:05:07.428Z,101385
2018-01-28T01:06:07.406Z,101380
2018-01-28T01:07:06.955Z,101370
2018-01-28T01:08:06.874Z,101378
2018-01-28T01:09:07.473Z,101377
2018-01-28T01:10:06.953Z,101363
2018-01-28T01:11:07.021Z,101367
2018-01-28T01:12:07.762Z,101378
2018-01-28T01:13:07.132Z,101386
2018-01-28T01:14:07.818Z,101382
2018-01-28T01:15:07.849Z,101369
2018-01-28T01:16:07.258Z,101366
2018-01-28T01:17:07.917Z,101369
2018-01-28T01:18:07.807Z,101363
2018-01-28T01:19:07.378Z,101364
2018-01-28T01:20:07.513Z,101365
2018-01-28T01:21:07.463Z,101357
2018-01-28T01:22:08.180Z,101351
2018-01-28T01:23:07.664Z,101350
2018-01-28T01:24:07.614Z,101353
2018-01-28T01:25:07.817Z,101360
2018-01-28T01:26:07.747Z,101366
2018-01-28T01:27:07.912Z,101363
2018-01-28T01:28:08.461Z,101350
2018-01-28T01:29:08.008Z,101363
2018-01-28T01:30:07.986Z,101366
2018-01-28T01:31:08.684Z,101380
2018-01-28T01:32:08.097Z,101385
2018-01-28T01:33:08.231Z,101398
2018-01-28T01:34:08.836Z,101395
2018-01-28T01:35:08.791Z,101398
2018-01-28T01:36:08.889Z,101407
2018-01-28T01:37:08.401Z,101404
2018-01-28T01:38:08.853Z,101397
2018-01-28T01:39:08.470Z,101388
2018-01-28T01:40:08.444Z,101397
2018-01-28T01:41:08.480Z,101386
2018-01-28T01:42:08.519Z,101387
2018-01-28T01:43:09.259Z,101384
2018-01-28T01:44:08.660Z,101391
2018-01-28T01:45:08.871Z,101396
2018-01-28T01:46:08.817Z,101397
2018-01-28T01:47:08.820Z,101393
2018-01-28T01:48:08.821Z,101387
2018-01-28T01:49:09.547Z,101389
2018-01-28T01:50:09.056Z,101388
2018-01-28T01:51:08.972Z,101397
2018-01-28T01:52:09.070Z,101397
2018-01-28T01:53:09.124Z,101394
2018-01-28T01:54:09.168Z,101393
2018-01-28T01:55:09.796Z,101395
2018-01-28T01:56:09.276Z,101397
2018-01-28T01:57:09.481Z,101399
2018-01-28T01:58:09.921Z,101402
2018-01-28T01:59:10.043Z,101396
2018-01-28T02:00:09.483Z,101405
2018-01-28T02:01:10.179Z,101401
2018-01-28T02:02:09.644Z,101397
2018-01-28T02:03:09.676Z,101383
2018-01-28T02:04:09.724Z,101395
2018-01-28T02:05:09.669Z,101395
2018-01-28T02:06:10.383Z,101398
2018-01-28T02:07:09.866Z,101399
2018-01-28T02:08:10.341Z,101399
2018-01-28T02:09:10.453Z,101396
2018-01-28T02:10:09.808Z,101395
2018-01-28T02:11:09.893Z,101397
2018-01-28T02:12:10.617Z,101398
2018-01-28T02:13:10.715Z,101389
2018-01-28T02:14:10.181Z,101393
2018-01-28T02:15:10.220Z,101393
2018-01-28T02:16:10.773Z,101398
2018-01-28T02:17:10.227Z,101402
2018-01-28T02:18:10.750Z,101400
2018-01-28T02:19:10.817Z,101386
2018-01-28T02:20:10.862Z,101385
2018-01-28T02:21:10.320Z,101394
2018-01-28T02:22:10.453Z,101391
2018-01-28T02:23:10.978Z,101395
2018-01-28T02:24:10.467Z,101399
2018-01-28T02:25:10.667Z,101397
2018-01-28T02:26:10.749Z,101391
2018-01-28T02:27:10.651Z,101392
2018-01-28T02:28:10.694Z,101390
2018-01-28T02:29:10.696Z,101390
2018-01-28T02:30:10.788Z,101391
2018-01-28T02:31:10.874Z,101392
2018-01-28T02:32:11.035Z,101393
2018-01-28T02:33:11.075Z,101394
2018-01-28T02:34:11.034Z,101396
2018-01-28T02:35:11.775Z,101406
2018-01-28T02:36:11.242Z,101396
2018-01-28T02:37:11.229Z,101401
2018-01-28T02:38:11.376Z,101402
2018-01-28T02:39:11.419Z,101394
2018-01-28T02:40:11.403Z,101410
2018-01-28T02:41:11.590Z,101403
2018-01-28T02:42:12.097Z,101400
2018-01-28T02:43:12.275Z,101399
2018-01-28T02:44:11.741Z,101397
2018-01-28T02:45:12.303Z,101398
2018-01-28T02:46:11.674Z,101393
2018-01-28T02:47:11.771Z,101392
2018-01-28T02:48:12.467Z,101392
2018-01-28T02:49:11.872Z,101383
2018-01-28T02:50:11.978Z,101384
2018-01-28T02:51:12.416Z,101381
2018-01-28T02:52:11.973Z,101375
2018-01-28T02:53:12.067Z,101376
2018-01-28T02:54:12.165Z,101374
2018-01-28T02:55:12.170Z,101376
2018-01-28T02:56:12.851Z,101382
2018-01-28T02:57:12.757Z,101386
2018-01-28T02:58:12.405Z,101383
2018-01-28T02:59:12.489Z,101373
2018-01-28T03:00:13.082Z,101382
2018-01-28T03:01:12.613Z,101386
2018-01-28T03:02:12.707Z,101390
2018-01-28T03:03:13.223Z,101392
2018-01-28T03:04:13.324Z,101382
2018-01-28T03:05:12.928Z,101379
2018-01-28T03:06:12.874Z,101378
2018-01-28T03:07:13.031Z,101370
2018-01-28T03:08:13.070Z,101372
2018-01-28T03:09:13.536Z,101378
2018-01-28T03:10:13.606Z,101375
2018-01-28T03:11:13.800Z,101374
2018-01-28T03:12:13.854Z,101380
2018-01-28T03:13:13.233Z,101389
2018-01-28T03:14:13.339Z,101388
2018-01-28T03:15:13.314Z,101396
2018-01-28T03:16:13.380Z,101399
2018-01-28T03:17:13.453Z,101397
2018-01-28T03:18:13.517Z,101406
2018-01-28T03:19:13.594Z,101400
2018-01-28T03:20:13.675Z,101382
2018-01-28T03:21:13.869Z,101403
2018-01-28T03:22:14.342Z,101391
2018-01-28T03:23:13.991Z,101394
2018-01-28T03:24:14.620Z,101410
2018-01-28T03:25:14.664Z,101395
2018-01-28T03:26:14.118Z,101401
2018-01-28T03:27:14.704Z,101403
2018-01-28T03:28:14.653Z,101406
2018-01-28T03:29:14.318Z,101401
2018-01-28T03:30:14.292Z,101389
2018-01-28T03:31:14.468Z,101389
2018-01-28T03:32:14.418Z,101412
2018-01-28T03:33:14.490Z,101390
2018-01-28T03:34:14.537Z,101417
2018-01-28T03:35:15.226Z,101411
2018-01-28T03:36:14.595Z,101406
2018-01-28T03:37:14.664Z,101413
2018-01-28T03:38:14.682Z,101414
2018-01-28T03:39:14.783Z,101417
2018-01-28T03:40:14.802Z,101417
2018-01-28T03:41:14.836Z,101421
2018-01-28T03:42:14.968Z,101416
2018-01-28T03:43:14.962Z,101418
2018-01-28T03:44:14.991Z,101412
2018-01-28T03:45:15.039Z,101411
2018-01-28T03:46:15.103Z,101400
2018-01-28T03:47:15.160Z,101408
2018-01-28T03:48:15.761Z,101410
2018-01-28T03:49:15.252Z,101424
2018-01-28T03:50:15.926Z,101422
2018-01-28T03:51:16.028Z,101417
2018-01-28T03:52:16.021Z,101433
2018-01-28T03:53:15.537Z,101423
2018-01-28T03:54:15.968Z,101443
2018-01-28T03:55:15.505Z,101440
2018-01-28T03:56:16.165Z,101443
2018-01-28T03:57:15.577Z,101449
2018-01-28T03:58:15.655Z,101437
2018-01-28T03:59:16.314Z,101438
2018-01-28T04:00:15.728Z,101439
2018-01-28T04:01:16.892Z,101417
2018-01-28T04:02:16.489Z,101418
2018-01-28T04:03:16.542Z,101427
2018-01-28T04:04:16.609Z,101435
2018-01-28T04:05:16.545Z,101429
2018-01-28T04:06:16.019Z,101421
2018-01-28T04:07:16.100Z,101422
2018-01-28T04:08:16.143Z,101426
2018-01-28T04:09:16.870Z,101423
2018-01-28T04:10:16.302Z,101422
2018-01-28T04:11:16.329Z,101431
2018-01-28T04:12:16.954Z,101425
2018-01-28T04:13:17.074Z,101425
2018-01-28T04:14:16.614Z,101427
2018-01-28T04:15:16.558Z,101429
2018-01-28T04:16:16.648Z,101439
2018-01-28T04:17:17.232Z,101437
2018-01-28T04:18:16.874Z,101428
2018-01-28T04:19:16.828Z,101427
2018-01-28T04:20:16.911Z,101432
2018-01-28T04:21:17.515Z,101422
2018-01-28T04:22:17.071Z,101423
2018-01-28T04:23:17.782Z,101431
2018-01-28T04:24:17.235Z,101430
2018-01-28T04:25:17.394Z,101431
2018-01-28T04:26:17.493Z,101430
2018-01-28T04:27:17.453Z,101430
2018-01-28T04:28:18.082Z,101429
2018-01-28T04:29:17.552Z,101437
2018-01-28T04:30:17.459Z,101434
2018-01-28T04:31:17.659Z,101432
2018-01-28T04:32:18.243Z,101439
2018-01-28T04:33:17.640Z,101437
2018-01-28T04:34:17.673Z,101433
2018-01-28T04:35:17.683Z,101431
2018-01-28T04:36:17.867Z,101433
2018-01-28T04:37:17.806Z,101430
2018-01-28T04:38:17.998Z,101427
2018-01-28T04:39:17.882Z,101430
2018-01-28T04:40:17.972Z,101426
2018-01-28T04:41:18.012Z,101421
2018-01-28T04:42:18.164Z,101429
2018-01-28T04:43:18.246Z,101439
2018-01-28T04:44:18.829Z,101437
2018-01-28T04:45:18.787Z,101422
2018-01-28T04:46:18.248Z,101436
2018-01-28T04:47:18.315Z,101424
2018-01-28T04:48:19.022Z,101427
2018-01-28T04:49:18.542Z,101441
2018-01-28T04:50:19.090Z,101440
2018-01-28T04:51:19.141Z,101433
2018-01-28T04:52:18.690Z,101444
2018-01-28T04:53:19.268Z,101441
2018-01-28T04:54:19.336Z,101444
2018-01-28T04:55:18.863Z,101455
2018-01-28T04:56:19.408Z,101451
2018-01-28T04:57:18.766Z,101451
2018-01-28T04:58:18.825Z,101448
2018-01-28T04:59:18.871Z,101443
2018-01-28T05:00:18.894Z,101447
2018-01-28T05:01:19.633Z,101441
2018-01-28T05:02:19.681Z,101442
2018-01-28T05:03:19.079Z,101445
2018-01-28T05:04:19.237Z,101448
2018-01-28T05:05:19.318Z,101441
2018-01-28T05:06:19.846Z,101441
2018-01-28T05:07:19.351Z,101439
2018-01-28T05:08:19.382Z,101446
2018-01-28T05:09:19.418Z,101438
2018-01-28T05:10:20.020Z,101443
2018-01-28T05:11:20.213Z,101426
2018-01-28T05:12:20.262Z,101446
2018-01-28T05:13:19.640Z,101446
2018-01-28T05:14:19.730Z,101450
2018-01-28T05:15:19.802Z,101457
2018-01-28T05:16:19.871Z,101455
2018-01-28T05:17:20.468Z,101459
2018-01-28T05:18:20.548Z,101460
2018-01-28T05:19:20.572Z,101464
2018-01-28T05:20:19.967Z,101466
2018-01-28T05:21:20.051Z,101472
2018-01-28T05:22:20.698Z,101454
2018-01-28T05:23:20.130Z,101463
2018-01-28T05:24:20.853Z,101463
2018-01-28T05:25:20.265Z,101451
2018-01-28T05:26:20.337Z,101450
2018-01-28T05:27:20.388Z,101452
2018-01-28T05:28:20.503Z,101447
2018-01-28T05:29:20.486Z,101457
2018-01-28T05:30:21.222Z,101455
2018-01-28T05:31:21.252Z,101456
2018-01-28T05:32:20.763Z,101446
2018-01-28T05:33:20.780Z,101461
2018-01-28T05:34:20.818Z,101465
2018-01-28T05:35:20.839Z,101472
2018-01-28T05:36:20.851Z,101479
2018-01-28T05:37:20.935Z,101471
2018-01-28T05:38:20.870Z,101469
2018-01-28T05:39:21.617Z,101475
2018-01-28T05:40:21.701Z,101468
2018-01-28T05:41:21.721Z,101463
2018-01-28T05:42:21.163Z,101470
2018-01-28T05:43:21.730Z,101479
2018-01-28T05:44:21.312Z,101473
2018-01-28T05:45:21.931Z,101472
2018-01-28T05:46:21.896Z,101467
2018-01-28T05:47:21.925Z,101470
2018-01-28T05:48:21.778Z,101469
2018-01-28T05:49:21.552Z,101460
2018-01-28T05:50:21.492Z,101465
2018-01-28T05:51:22.173Z,101461
2018-01-28T05:52:21.698Z,101458
2018-01-28T05:53:21.547Z,101446
2018-01-28T05:54:22.102Z,101461
2018-01-28T05:55:21.607Z,101456
2018-01-28T05:56:22.287Z,101461
2018-01-28T05:57:21.675Z,101463
2018-01-28T05:58:22.290Z,101449
2018-01-28T05:59:21.922Z,101466
2018-01-28T06:00:21.922Z,101470
2018-01-28T06:01:22.557Z,101474
2018-01-28T06:02:22.539Z,101472
2018-01-28T06:03:22.070Z,101476
2018-01-28T06:04:22.104Z,101469
2018-01-28T06:05:22.799Z,101465
2018-01-28T06:06:22.338Z,101465
2018-01-28T06:07:22.241Z,101468
2018-01-28T06:08:22.925Z,101468
2018-01-28T06:09:22.947Z,101464
2018-01-28T06:10:22.438Z,101475
2018-01-28T06:11:23.009Z,101475
2018-01-28T06:12:23.049Z,101476
2018-01-28T06:13:23.231Z,101482
2018-01-28T06:14:22.663Z,101494
2018-01-28T06:15:22.753Z,101488
2018-01-28T06:16:22.859Z,101493
2018-01-28T06:17:22.920Z,101495
2018-01-28T06:18:23.558Z,101475
2018-01-28T06:19:23.595Z,101492
2018-01-28T06:20:23.553Z,101505
2018-01-28T06:21:23.602Z,101494
2018-01-28T06:22:23.714Z,101516
2018-01-28T06:23:23.170Z,101514
2018-01-28T06:24:23.265Z,101519
2018-01-28T06:25:23.320Z,101526
2018-01-28T06:26:23.358Z,101522
2018-01-28T06:27:23.421Z,101531
2018-01-28T06:28:23.477Z,101533
2018-01-28T06:29:24.118Z,101535
2018-01-28T06:30:24.185Z,101530
2018-01-28T06:31:23.699Z,101533
2018-01-28T06:32:23.658Z,101539
2018-01-28T06:33:23.700Z,101537
2018-01-28T06:34:24.433Z,101546
2018-01-28T06:35:24.502Z,101535
2018-01-28T06:36:23.937Z,101551
2018-01-28T06:37:24.019Z,101549
2018-01-28T06:38:23.957Z,101546
2018-01-28T06:39:24.594Z,101546
2018-01-28T06:40:24.245Z,101554
2018-01-28T06:41:24.239Z,101548
2018-01-28T06:42:24.908Z,101546
2018-01-28T06:43:24.450Z,101559
2018-01-28T06:44:24.498Z,101556
2018-01-28T06:45:24.467Z,101547
2018-01-28T06:46:24.563Z,101551
2018-01-28T06:47:24.723Z,101550
2018-01-28T06:48:25.313Z,101539
2018-01-28T06:49:24.798Z,101551
2018-01-28T06:50:24.804Z,101551
2018-01-28T06:51:24.889Z,101548
2018-01-28T06:52:25.450Z,101544
2018-01-28T06:53:25.099Z,101550
2018-01-28T06:54:25.208Z,101548
2018-01-28T06:55:25.238Z,101552
2018-01-28T06:56:25.775Z,101557
2018-01-28T06:57:25.374Z,101555
2018-01-28T06:58:25.318Z,101543
2018-01-28T06:59:25.369Z,101553
2018-01-28T07:00:25.444Z,101550
2018-01-28T07:01:25.446Z,101544
2018-01-28T07:02:25.509Z,101555
2018-01-28T07:03:25.712Z,101553
2018-01-28T07:04:26.163Z,101556
2018-01-28T07:05:25.752Z,101551
2018-01-28T07:06:25.758Z,101546
2018-01-28T07:07:25.831Z,101542
2018-01-28T07:08:25.742Z,101551
2018-01-28T07:09:26.484Z,101558
2018-01-28T07:10:25.847Z,101560
2018-01-28T07:11:26.549Z,101558
2018-01-28T07:12:25.939Z,101556
2018-01-28T07:13:25.956Z,101568
2018-01-28T07:14:25.999Z,101565
2018-01-28T07:15:26.207Z,101553
2018-01-28T07:16:26.262Z,101564
2018-01-28T07:17:26.334Z,101565
2018-01-28T07:18:26.810Z,101568
2018-01-28T07:19:26.346Z,101567
2018-01-28T07:20:26.385Z,101570
2018-01-28T07:21:26.520Z,101571
2018-01-28T07:22:27.124Z,101564
2018-01-28T07:23:26.659Z,101563
2018-01-28T07:24:27.270Z,101567
2018-01-28T07:25:26.733Z,101567
2018-01-28T07:26:27.359Z,101563
2018-01-28T07:27:26.735Z,101583
2018-01-28T07:28:26.751Z,101580
2018-01-28T07:29:26.841Z,101584
2018-01-28T07:30:27.545Z,101582
2018-01-28T07:31:26.936Z,101587
2018-01-28T07:32:27.483Z,101589
2018-01-28T07:33:27.686Z,101589
2018-01-28T07:34:27.773Z,101590
2018-01-28T07:35:27.289Z,101586
2018-01-28T07:36:27.781Z,101581
2018-01-28T07:37:27.821Z,101592
2018-01-28T07:38:27.976Z,101592
2018-01-28T07:39:27.955Z,101587
2018-01-28T07:40:27.440Z,101596
2018-01-28T07:41:27.384Z,101596
2018-01-28T07:42:27.495Z,101601
2018-01-28T07:43:27.548Z,101602
2018-01-28T07:44:27.674Z,101605
2018-01-28T07:45:28.311Z,101613
2018-01-28T07:46:27.685Z,101604
2018-01-28T07:47:27.748Z,101616
2018-01-28T07:48:28.373Z,101613
2018-01-28T07:49:27.786Z,101617
2018-01-28T07:50:28.514Z,101617
2018-01-28T07:51:28.025Z,101611
2018-01-28T07:52:28.554Z,101614
2018-01-28T07:53:28.669Z,101612
2018-01-28T07:54:28.094Z,101617
2018-01-28T07:55:28.191Z,101604
2018-01-28T07:56:28.907Z,101614
2018-01-28T07:57:28.835Z,101616
2018-01-28T07:58:28.331Z,101620
2018-01-28T07:59:28.372Z,101612
2018-01-28T08:00:28.450Z,101620
2018-01-28T08:01:28.486Z,101619
2018-01-28T08:02:28.589Z,101615
2018-01-28T08:03:29.288Z,101609
2018-01-28T08:04:29.239Z,101621
2018-01-28T08:05:28.828Z,101619
2018-01-28T08:06:29.401Z,101619
2018-01-28T08:07:28.761Z,101617
2018-01-28T08:08:29.450Z,101619
2018-01-28T08:09:28.812Z,101629
2018-01-28T08:10:28.859Z,101617
2018-01-28T08:11:28.897Z,101612
2018-01-28T08:12:28.959Z,101626
2018-01-28T08:13:28.960Z,101616
2018-01-28T08:14:29.115Z,101608
2018-01-28T08:15:29.044Z,101616
2018-01-28T08:16:29.048Z,101618
2018-01-28T08:17:29.090Z,101625
2018-01-28T08:18:29.183Z,101623
2018-01-28T08:19:29.327Z,101616
2018-01-28T08:20:29.890Z,101617
2018-01-28T08:21:29.832Z,101625
2018-01-28T08:22:29.972Z,101624
2018-01-28T08:23:29.375Z,101626
2018-01-28T08:24:29.582Z,101617
2018-01-28T08:25:30.049Z,101621
2018-01-28T08:26:30.137Z,101615
2018-01-28T08:27:29.797Z,101624
2018-01-28T08:28:29.681Z,101621
2018-01-28T08:29:29.803Z,101612
2018-01-28T08:30:30.367Z,101627
2018-01-28T08:31:30.449Z,101619
2018-01-28T08:32:29.814Z,101629
2018-01-28T08:33:29.850Z,101627
2018-01-28T08:34:30.544Z,101624
2018-01-28T08:35:30.495Z,101623
2018-01-28T08:36:30.163Z,101616
2018-01-28T08:37:30.736Z,101620
2018-01-28T08:38:30.740Z,101625
2018-01-28T08:39:30.137Z,101624
2018-01-28T08:40:30.736Z,101624
2018-01-28T08:41:30.854Z,101620
2018-01-28T08:42:30.360Z,101620
2018-01-28T08:43:30.786Z,101623
2018-01-28T08:44:30.381Z,101623
2018-01-28T08:45:31.006Z,101626
2018-01-28T08:46:31.036Z,101621
2018-01-28T08:47:30.466Z,101624
2018-01-28T08:48:31.047Z,101619
2018-01-28T08:49:30.622Z,101619
2018-01-28T08:50:31.148Z,101612
2018-01-28T08:51:31.298Z,101616
2018-01-28T08:52:30.688Z,101618
2018-01-28T08:53:30.852Z,101616
2018-01-28T08:54:30.776Z,101612
2018-01-28T08:55:30.821Z,101615
2018-01-28T08:56:30.958Z,101616
2018-01-28T08:57:31.542Z,101614
2018-01-28T08:58:30.907Z,101605
2018-01-28T08:59:30.998Z,101612
2018-01-28T09:00:31.108Z,101611
2018-01-28T09:01:31.217Z,101614
2018-01-28T09:02:31.186Z,101612
2018-01-28T09:03:31.888Z,101602
2018-01-28T09:04:31.359Z,101606
2018-01-28T09:05:31.923Z,101617
2018-01-28T09:06:31.424Z,101615
2018-01-28T09:07:31.450Z,101622
2018-01-28T09:08:31.509Z,101624
2018-01-28T09:09:31.519Z,101627
2018-01-28T09:10:31.456Z,101634
2018-01-28T09:11:32.154Z,101629
2018-01-28T09:12:32.078Z,101630
2018-01-28T09:13:31.722Z,101631
2018-01-28T09:14:32.280Z,101631
2018-01-28T09:15:32.305Z,101629
2018-01-28T09:16:32.264Z,101638
2018-01-28T09:17:31.789Z,101641
2018-01-28T09:18:31.900Z,101631
2018-01-28T09:19:31.890Z,101646
2018-01-28T09:20:32.644Z,101648
2018-01-28T09:21:31.996Z,101637
2018-01-28T09:22:32.626Z,101640
2018-01-28T09:23:32.156Z,101640
2018-01-28T09:24:32.189Z,101650
2018-01-28T09:25:32.174Z,101646
2018-01-28T09:26:32.935Z,101643
2018-01-28T09:27:32.928Z,101647
2018-01-28T09:28:32.389Z,101645
2018-01-28T09:29:32.439Z,101648
2018-01-28T09:30:33.000Z,101654
2018-01-28T09:31:32.436Z,101654
2018-01-28T09:32:32.960Z,101649
2018-01-28T09:33:33.056Z,101647
2018-01-28T09:34:32.454Z,101651
2018-01-28T09:35:32.511Z,101655
2018-01-28T09:36:32.625Z,101660
2018-01-28T09:37:32.673Z,101663
2018-01-28T09:38:32.644Z,101655
2018-01-28T09:39:32.807Z,101657
2018-01-28T09:40:32.822Z,101653
2018-01-28T09:41:32.860Z,101650
2018-01-28T09:42:33.519Z,101658
2018-01-28T09:43:32.988Z,101658
2018-01-28T09:44:33.477Z,101654
2018-01-28T09:45:33.628Z,101654
2018-01-28T09:46:33.671Z,101658
2018-01-28T09:47:33.702Z,101668
2018-01-28T09:48:33.750Z,101652
2018-01-28T09:49:33.311Z,101654
2018-01-28T09:50:33.335Z,101668
2018-01-28T09:51:33.322Z,101665
2018-01-28T09:52:33.455Z,101672
2018-01-28T09:53:33.447Z,101677
2018-01-28T09:54:33.540Z,101675
2018-01-28T09:55:33.558Z,101672
2018-01-28T09:56:34.209Z,101679
2018-01-28T09:57:33.747Z,101677
2018-01-28T09:58:33.690Z,101670
2018-01-28T09:59:33.780Z,101669
2018-01-28T10:00:33.785Z,101678
2018-01-28T10:01:33.946Z,101676
2018-01-28T10:02:33.984Z,101685
2018-01-28T10:03:34.571Z,101683
2018-01-28T10:04:34.539Z,101691
2018-01-28T10:05:34.078Z,101697
2018-01-28T10:06:34.092Z,101687
2018-01-28T10:07:34.241Z,101689
2018-01-28T10:08:34.142Z,101703
2018-01-28T10:09:34.165Z,101698
2018-01-28T10:10:34.833Z,101697
2018-01-28T10:11:34.255Z,101699
2018-01-28T10:12:34.947Z,101705
2018-01-28T10:13:34.968Z,101704
2018-01-28T10:14:34.384Z,101707
2018-01-28T10:15:35.097Z,101700
2018-01-28T10:16:34.508Z,101715
2018-01-28T10:17:35.091Z,101717
2018-01-28T10:18:34.695Z,101711
2018-01-28T10:19:34.659Z,101708
2018-01-28T10:20:34.689Z,101705
2018-01-28T10:21:34.789Z,101711
2018-01-28T10:22:34.840Z,101713
2018-01-28T10:23:35.477Z,101714
2018-01-28T10:24:34.834Z,101721
2018-01-28T10:25:35.027Z,101721
2018-01-28T10:26:34.981Z,101722
2018-01-28T10:27:35.663Z,101714
2018-01-28T10:28:35.604Z,101717
2018-01-28T10:29:35.751Z,101718
2018-01-28T10:30:35.243Z,101717
2018-01-28T10:31:35.192Z,101709
2018-01-28T10:32:35.209Z,101709
2018-01-28T10:33:35.894Z,101703
2018-01-28T10:34:35.261Z,101699
2018-01-28T10:35:35.854Z,101708
2018-01-28T10:36:35.504Z,101709
2018-01-28T10:37:36.024Z,101708
2018-01-28T10:38:35.568Z,101707
2018-01-28T10:39:35.587Z,101709
2018-01-28T10:40:36.299Z,101701
2018-01-28T10:41:36.218Z,101702
2018-01-28T10:42:35.794Z,101707
2018-01-28T10:43:35.896Z,101703
2018-01-28T10:44:36.541Z,101698
2018-01-28T10:45:36.628Z,101697
2018-01-28T10:46:36.687Z,101699
2018-01-28T10:47:36.184Z,101698
2018-01-28T10:48:36.762Z,101706
2018-01-28T10:49:36.200Z,101706
2018-01-28T10:50:36.924Z,101701
2018-01-28T10:51:36.994Z,101701
2018-01-28T10:52:37.082Z,101694
2018-01-28T10:53:37.176Z,101697
2018-01-28T10:54:37.174Z,101692
2018-01-28T10:55:36.604Z,101693
2018-01-28T10:56:37.319Z,101702
2018-01-28T10:57:36.748Z,101692
2018-01-28T10:58:37.460Z,101695
2018-01-28T10:59:36.997Z,101692
2018-01-28T11:00:36.918Z,101694
2018-01-28T11:01:36.918Z,101688
2018-01-28T11:02:37.058Z,101702
2018-01-28T11:03:37.755Z,101697
2018-01-28T11:04:37.208Z,101694
2018-01-28T11:05:37.886Z,101693
2018-01-28T11:06:37.310Z,101690
2018-01-28T11:07:37.369Z,101689
2018-01-28T11:08:37.942Z,101699
2018-01-28T11:09:37.959Z,101684
2018-01-28T11:10:37.487Z,101696
2018-01-28T11:11:38.186Z,101700
2018-01-28T11:12:38.212Z,101694
2018-01-28T11:13:37.754Z,101693
2018-01-28T11:14:38.374Z,101697
2018-01-28T11:15:38.400Z,101698
2018-01-28T11:16:38.479Z,101693
2018-01-28T11:17:37.891Z,101685
2018-01-28T11:18:38.571Z,101691
2018-01-28T11:19:38.130Z,101677
2018-01-28T11:20:38.731Z,101695
2018-01-28T11:21:38.264Z,101695
2018-01-28T11:22:38.697Z,101687
2018-01-28T11:23:38.839Z,101696
2018-01-28T11:24:38.294Z,101688
2018-01-28T11:25:38.929Z,101687
2018-01-28T11:26:38.496Z,101688
2018-01-28T11:27:38.493Z,101677
2018-01-28T11:28:38.456Z,101685
2018-01-28T11:29:39.130Z,101674
2018-01-28T11:30:39.088Z,101681
2018-01-28T11:31:38.749Z,101679
2018-01-28T11:32:38.807Z,101677
2018-01-28T11:33:38.665Z,101680
2018-01-28T11:34:38.662Z,101676
2018-01-28T11:35:39.391Z,101670
2018-01-28T11:36:38.820Z,101676
2018-01-28T11:37:38.829Z,101679
2018-01-28T11:38:39.595Z,101679
2018-01-28T11:39:38.947Z,101676
2018-01-28T11:40:38.980Z,101673
2018-01-28T11:41:39.126Z,101676
2018-01-28T11:42:39.191Z,101683
2018-01-28T11:43:39.752Z,101674
2018-01-28T11:44:39.793Z,101686
2018-01-28T11:45:39.258Z,101687
2018-01-28T11:46:39.704Z,101685
2018-01-28T11:47:39.959Z,101675
2018-01-28T11:48:39.294Z,101687
2018-01-28T11:49:40.032Z,101695
2018-01-28T11:50:39.991Z,101694
2018-01-28T11:51:40.045Z,101690
2018-01-28T11:52:39.408Z,101694
2018-01-28T11:53:39.449Z,101696
2018-01-28T11:54:40.149Z,101692
2018-01-28T11:55:39.623Z,101692
2018-01-28T11:56:40.266Z,101690
2018-01-28T11:57:40.119Z,101696
2018-01-28T11:58:39.636Z,101697
2018-01-28T11:59:39.844Z,101710
2018-01-28T12:00:39.862Z,101707
2018-01-28T12:01:40.434Z,101720
2018-01-28T12:02:39.909Z,101719
2018-01-28T12:03:39.923Z,101727
2018-01-28T12:04:40.527Z,101733
2018-01-28T12:05:40.128Z,101722
2018-01-28T12:06:40.676Z,101726
2018-01-28T12:07:40.109Z,101722
2018-01-28T12:08:40.114Z,101722
2018-01-28T12:09:40.162Z,101720
2018-01-28T12:10:40.248Z,101719
2018-01-28T12:11:40.372Z,101717
2018-01-28T12:12:40.314Z,101705
2018-01-28T12:13:40.882Z,101715
2018-01-28T12:14:40.948Z,101713
2018-01-28T12:15:40.569Z,101723
2018-01-28T12:16:40.562Z,101712
2018-01-28T12:17:41.158Z,101712
2018-01-28T12:18:40.515Z,101701
2018-01-28T12:19:40.562Z,101710
2018-01-28T12:20:40.628Z,101709
2018-01-28T12:21:41.299Z,101712
2018-01-28T12:22:41.377Z,101701
2018-01-28T12:23:41.400Z,101711
2018-01-28T12:24:40.858Z,101707
2018-01-28T12:25:40.950Z,101708
2018-01-28T12:26:40.986Z,101704
2018-01-28T12:27:41.484Z,101698
2018-01-28T12:28:41.015Z,101700